createdAt,value
2018-09-11T00:00:42.590Z,1016.70
2018-09-11T00:01:42.609Z,1016.69
2018-09-11T00:02:42.558Z,1016.61
2018-09-11T00:03:42.577Z,1016.66
2018-09-11T00:04:42.542Z,1016.63
2018-09-11T00:05:42.551Z,1016.62
2018-09-11T00:06:42.516Z,1016.71
2018-09-11T00:07:42.515Z,1016.68
2018-09-11T00:08:42.530Z,1016.68
2018-09-11T00:09:42.490Z,1016.71
2018-09-11T00:10:42.544Z,1016.74
2018-09-11T00:11:42.461Z,1016.72
2018-09-11T00:12:42.457Z,1016.72
2018-09-11T00:13:42.436Z,1016.76
2018-09-11T00:14:42.452Z,1016.71
2018-09-11T00:15:42.413Z,1016.72
2018-09-11T00:16:42.411Z,1016.74
2018-09-11T00:17:42.396Z,1016.76
2018-09-11T00:18:42.386Z,1016.76
2018-09-11T00:19:42.440Z,1016.77
2018-09-11T00:20:42.362Z,1016.78
2018-09-11T00:21:42.353Z,1016.81
2018-09-11T00:22:42.359Z,1016.80
2018-09-11T00:23:42.331Z,1016.76
2018-09-11T00:24:42.318Z,1016.81
2018-09-11T00:25:42.338Z,1016.83
2018-09-11T00:26:42.298Z,1016.81
2018-09-11T00:27:42.364Z,1016.84
2018-09-11T00:28:42.324Z,1016.82
2018-09-11T00:29:42.264Z,1016.84
2018-09-11T00:30:42.309Z,1016.87
2018-09-11T00:31:42.271Z,1016.87
2018-09-11T00:32:42.234Z,1016.87
2018-09-11T00:33:42.220Z,1016.84
2018-09-11T00:34:42.220Z,1016.89
2018-09-11T00:35:42.232Z,1016.85
2018-09-11T00:36:42.202Z,1016.85
2018-09-11T00:37:42.183Z,1016.86
2018-09-11T00:38:42.174Z,1016.89
2018-09-11T00:39:42.162Z,1016.90
2018-09-11T00:40:42.210Z,1016.84
2018-09-11T00:41:42.152Z,1016.83
2018-09-11T00:42:42.136Z,1016.83
2018-09-11T00:43:42.136Z,1016.89
2018-09-11T00:44:42.098Z,1016.86
2018-09-11T00:45:42.102Z,1016.90
2018-09-11T00:46:42.117Z,1016.86
2018-09-11T00:47:42.082Z,1016.89
2018-09-11T00:48:42.072Z,1016.87
2018-09-11T00:49:42.048Z,1016.85
2018-09-11T00:50:42.035Z,1016.84
2018-09-11T00:51:42.074Z,1016.79
2018-09-11T00:52:42.015Z,1016.83
2018-09-11T00:53:42.008Z,1016.83
2018-09-11T00:54:42.021Z,1016.79
2018-09-11T00:55:41.982Z,1016.82
2018-09-11T00:56:42.033Z,1016.81
2018-09-11T00:57:41.974Z,1016.81
2018-09-11T00:58:41.949Z,1016.84
2018-09-11T00:59:41.934Z,1016.80
2018-09-11T01:00:41.937Z,1016.82
2018-09-11T01:01:41.917Z,1016.77
2018-09-11T01:02:41.955Z,1016.77
2018-09-11T01:03:41.911Z,1016.73
2018-09-11T01:04:41.881Z,1016.72
2018-09-11T01:05:41.878Z,1016.68
2018-09-11T01:06:41.880Z,1016.69
2018-09-11T01:07:41.900Z,1016.71
2018-09-11T01:08:41.840Z,1016.74
2018-09-11T01:09:41.857Z,1016.78
2018-09-11T01:10:41.819Z,1016.75
2018-09-11T01:11:41.811Z,1016.73
2018-09-11T01:12:41.822Z,1016.76
2018-09-11T01:13:41.790Z,1016.73
2018-09-11T01:14:41.774Z,1016.75
2018-09-11T01:15:41.779Z,1016.76
2018-09-11T01:16:41.768Z,1016.73
2018-09-11T01:17:41.773Z,1016.70
2018-09-11T01:18:41.728Z,1016.72
2018-09-11T01:19:41.721Z,1016.76
2018-09-11T01:20:41.731Z,1016.76
2018-09-11T01:21:41.699Z,1016.76
2018-09-11T01:22:41.696Z,1016.83
2018-09-11T01:23:41.707Z,1016.85
2018-09-11T01:24:41.665Z,1016.85
2018-09-11T01:25:41.653Z,1016.83
2018-09-11T01:26:41.669Z,1016.85
2018-09-11T01:27:41.643Z,1016.85
2018-09-11T01:28:41.652Z,1016.83
2018-09-11T01:29:41.612Z,1016.86
2018-09-11T01:30:41.602Z,1016.85
2018-09-11T01:31:41.646Z,1016.88
2018-09-11T01:32:41.586Z,1016.87
2018-09-11T01:33:41.603Z,1016.88
2018-09-11T01:34:41.564Z,1016.93
2018-09-11T01:35:41.545Z,1016.85
2018-09-11T01:36:41.531Z,1016.89
2018-09-11T01:37:41.535Z,1016.87
2018-09-11T01:38:41.530Z,1016.88
2018-09-11T01:39:41.553Z,1016.87
2018-09-11T01:40:41.492Z,1016.84
2018-09-11T01:41:41.484Z,1016.83
2018-09-11T01:42:41.470Z,1016.84
2018-09-11T01:43:41.474Z,1016.84
2018-09-11T01:44:41.472Z,1016.84
2018-09-11T01:45:41.439Z,1016.87
2018-09-11T01:46:41.427Z,1016.84
2018-09-11T01:47:41.416Z,1016.90
2018-09-11T01:48:41.410Z,1016.84
2018-09-11T01:49:41.453Z,1016.83
2018-09-11T01:50:41.383Z,1016.84
2018-09-11T01:51:41.373Z,1016.85
2018-09-11T01:52:41.357Z,1016.82
2018-09-11T01:53:41.350Z,1016.83
2018-09-11T01:54:41.337Z,1016.83
2018-09-11T01:55:41.360Z,1016.84
2018-09-11T01:56:41.327Z,1016.81
2018-09-11T01:57:41.309Z,1016.75
2018-09-11T01:58:41.302Z,1016.76
2018-09-11T01:59:41.282Z,1016.79
2018-09-11T02:00:41.309Z,1016.79
2018-09-11T02:01:41.258Z,1016.77
2018-09-11T02:02:41.261Z,1016.79
2018-09-11T02:03:41.242Z,1016.78
2018-09-11T02:04:41.230Z,1016.79
2018-09-11T02:05:41.242Z,1016.79
2018-09-11T02:06:41.204Z,1016.81
2018-09-11T02:07:41.195Z,1016.84
2018-09-11T02:08:41.181Z,1016.83
2018-09-11T02:09:41.174Z,1016.84
2018-09-11T02:10:41.181Z,1016.84
2018-09-11T02:11:41.181Z,1016.79
2018-09-11T02:12:41.154Z,1016.80
2018-09-11T02:13:41.131Z,1016.81
2018-09-11T02:14:41.131Z,1016.82
2018-09-11T02:15:41.112Z,1016.85
2018-09-11T02:16:41.122Z,1016.79
2018-09-11T02:17:41.082Z,1016.78
2018-09-11T02:18:41.088Z,1016.73
2018-09-11T02:19:41.065Z,1016.72
2018-09-11T02:20:41.067Z,1016.73
2018-09-11T02:21:41.096Z,1016.71
2018-09-11T02:22:41.068Z,1016.72
2018-09-11T02:23:41.019Z,1016.73
2018-09-11T02:24:41.013Z,1016.75
2018-09-11T02:25:41.000Z,1016.71
2018-09-11T02:26:40.989Z,1016.73
2018-09-11T02:27:41.021Z,1016.71
2018-09-11T02:28:40.963Z,1016.67
2018-09-11T02:29:40.959Z,1016.69
2018-09-11T02:30:41.000Z,1016.69
2018-09-11T02:31:40.930Z,1016.63
2018-09-11T02:32:40.950Z,1016.63
2018-09-11T02:33:40.958Z,1016.59
2018-09-11T02:34:40.897Z,1016.60
2018-09-11T02:35:40.944Z,1016.61
2018-09-11T02:36:40.874Z,1016.57
2018-09-11T02:37:40.901Z,1016.62
2018-09-11T02:38:40.856Z,1016.64
2018-09-11T02:39:40.843Z,1016.65
2018-09-11T02:40:40.832Z,1016.65
2018-09-11T02:41:40.832Z,1016.67
2018-09-11T02:42:40.839Z,1016.68
2018-09-11T02:43:40.797Z,1016.70
2018-09-11T02:44:40.785Z,1016.67
2018-09-11T02:45:40.801Z,1016.74
2018-09-11T02:46:40.786Z,1016.74
2018-09-11T02:47:40.795Z,1016.70
2018-09-11T02:48:40.747Z,1016.75
2018-09-11T02:49:40.757Z,1016.74
2018-09-11T02:50:40.719Z,1016.74
2018-09-11T02:51:40.723Z,1016.76
2018-09-11T02:52:40.729Z,1016.68
2018-09-11T02:53:40.696Z,1016.67
2018-09-11T02:54:40.689Z,1016.68
2018-09-11T02:55:40.668Z,1016.68
2018-09-11T02:56:40.656Z,1016.64
2018-09-11T02:57:40.682Z,1016.65
2018-09-11T02:58:40.649Z,1016.67
2018-09-11T02:59:40.620Z,1016.66
2018-09-11T03:00:40.616Z,1016.65
2018-09-11T03:01:40.599Z,1016.65
2018-09-11T03:02:40.619Z,1016.68
2018-09-11T03:03:40.640Z,1016.67
2018-09-11T03:04:40.569Z,1016.70
2018-09-11T03:05:40.559Z,1016.71
2018-09-11T03:06:40.542Z,1016.77
2018-09-11T03:07:40.562Z,1016.74
2018-09-11T03:08:40.545Z,1016.70
2018-09-11T03:09:40.522Z,1016.68
2018-09-11T03:10:40.505Z,1016.68
2018-09-11T03:11:40.494Z,1016.64
2018-09-11T03:12:40.475Z,1016.65
2018-09-11T03:13:40.562Z,1016.69
2018-09-11T03:14:40.465Z,1016.65
2018-09-11T03:15:40.445Z,1016.67
2018-09-11T03:16:40.460Z,1016.69
2018-09-11T03:17:40.460Z,1016.73
2018-09-11T03:18:40.482Z,1016.73
2018-09-11T03:19:40.409Z,1016.74
2018-09-11T03:20:40.406Z,1016.76
2018-09-11T03:21:40.394Z,1016.73
2018-09-11T03:22:40.394Z,1016.80
2018-09-11T03:23:40.355Z,1016.77
2018-09-11T03:24:40.384Z,1016.78
2018-09-11T03:25:40.337Z,1016.81
2018-09-11T03:26:40.330Z,1016.81
2018-09-11T03:27:40.323Z,1016.85
2018-09-11T03:28:40.302Z,1016.87
2018-09-11T03:29:40.324Z,1016.88
2018-09-11T03:30:40.291Z,1016.90
2018-09-11T03:31:40.279Z,1016.90
2018-09-11T03:32:40.269Z,1016.92
2018-09-11T03:33:40.257Z,1016.95
2018-09-11T03:34:40.269Z,1016.95
2018-09-11T03:35:40.223Z,1016.95
2018-09-11T03:36:40.214Z,1017.02
2018-09-11T03:37:40.202Z,1017.00
2018-09-11T03:38:40.202Z,1017.00
2018-09-11T03:39:40.230Z,1017.00
2018-09-11T03:40:40.209Z,1017.07
2018-09-11T03:41:40.215Z,1017.05
2018-09-11T03:42:40.154Z,1017.03
2018-09-11T03:43:40.158Z,1017.00
2018-09-11T03:44:40.126Z,1017.06
2018-09-11T03:45:40.155Z,1017.05
2018-09-11T03:46:40.102Z,1017.09
2018-09-11T03:47:40.098Z,1017.05
2018-09-11T03:48:40.087Z,1017.01
2018-09-11T03:49:40.072Z,1017.03
2018-09-11T03:50:40.062Z,1017.03
2018-09-11T03:51:40.075Z,1017.01
2018-09-11T03:52:40.056Z,1017.01
2018-09-11T03:53:40.072Z,1016.99
2018-09-11T03:54:40.038Z,1017.00
2018-09-11T03:55:40.016Z,1017.01
2018-09-11T03:56:40.046Z,1017.05
2018-09-11T03:57:39.989Z,1017.03
2018-09-11T03:58:39.969Z,1017.03
2018-09-11T03:59:39.962Z,1017.04
2018-09-11T04:00:39.957Z,1017.09
2018-09-11T04:01:39.952Z,1017.06
2018-09-11T04:02:39.959Z,1017.11
2018-09-11T04:03:39.943Z,1017.11
2018-09-11T04:04:39.920Z,1017.07
2018-09-11T04:05:39.898Z,1017.11
2018-09-11T04:06:39.921Z,1017.10
2018-09-11T04:07:39.881Z,1017.10
2018-09-11T04:08:39.872Z,1017.16
2018-09-11T04:09:39.874Z,1017.10
2018-09-11T04:10:39.841Z,1017.15
2018-09-11T04:11:39.835Z,1017.07
2018-09-11T04:12:39.860Z,1017.13
2018-09-11T04:13:39.811Z,1017.12
2018-09-11T04:14:39.802Z,1017.14
2018-09-11T04:15:39.794Z,1017.16
2018-09-11T04:16:39.784Z,1017.11
2018-09-11T04:17:39.775Z,1017.13
2018-09-11T04:18:39.793Z,1017.12
2018-09-11T04:19:39.758Z,1017.08
2018-09-11T04:20:39.771Z,1017.09
2018-09-11T04:21:39.729Z,1017.10
2018-09-11T04:22:39.713Z,1017.08
2018-09-11T04:23:39.719Z,1017.05
2018-09-11T04:24:39.683Z,1017.05
2018-09-11T04:25:39.811Z,1017.07
2018-09-11T04:26:39.691Z,1017.09
2018-09-11T04:27:39.659Z,1017.09
2018-09-11T04:28:39.677Z,1017.11
2018-09-11T04:29:39.684Z,1017.14
2018-09-11T04:30:39.623Z,1017.08
2018-09-11T04:31:39.614Z,1017.11
2018-09-11T04:32:39.598Z,1017.12
2018-09-11T04:33:39.613Z,1017.15
2018-09-11T04:34:39.571Z,1017.15
2018-09-11T04:35:39.569Z,1017.10
2018-09-11T04:36:39.550Z,1017.09
2018-09-11T04:37:39.549Z,1017.10
2018-09-11T04:38:39.571Z,1017.07
2018-09-11T04:39:39.526Z,1017.06
2018-09-11T04:40:39.515Z,1017.03
2018-09-11T04:41:39.497Z,1017.04
2018-09-11T04:42:39.496Z,1017.04
2018-09-11T04:43:39.540Z,1017.09
2018-09-11T04:44:39.468Z,1017.08
2018-09-11T04:45:39.454Z,1017.11
2018-09-11T04:46:39.467Z,1017.04
2018-09-11T04:47:39.433Z,1017.08
2018-09-11T04:48:39.455Z,1017.08
2018-09-11T04:49:39.435Z,1017.09
2018-09-11T04:50:39.421Z,1017.09
2018-09-11T04:51:39.410Z,1017.07
2018-09-11T04:52:39.388Z,1017.06
2018-09-11T04:53:39.362Z,1017.07
2018-09-11T04:54:39.387Z,1017.01
2018-09-11T04:55:39.346Z,1016.99
2018-09-11T04:56:39.351Z,1017.00
2018-09-11T04:57:39.319Z,1017.01
2018-09-11T04:58:39.313Z,1017.02
2018-09-11T04:59:39.313Z,1017.03
2018-09-11T05:00:39.336Z,1017.03
2018-09-11T05:01:39.283Z,1017.03
2018-09-11T05:02:39.277Z,1017.04
2018-09-11T05:03:39.289Z,1017.02
2018-09-11T05:04:39.283Z,1016.97
2018-09-11T05:05:39.286Z,1017.01
2018-09-11T05:06:39.242Z,1017.02
2018-09-11T05:07:39.225Z,1017.06
2018-09-11T05:08:39.207Z,1017.01
2018-09-11T05:09:39.188Z,1017.03
2018-09-11T05:10:39.221Z,1017.05
2018-09-11T05:11:39.170Z,1017.07
2018-09-11T05:12:39.178Z,1017.07
2018-09-11T05:13:39.145Z,1017.02
2018-09-11T05:14:39.154Z,1017.03
2018-09-11T05:15:39.187Z,1017.04
2018-09-11T05:16:39.117Z,1017.04
2018-09-11T05:17:39.112Z,1017.05
2018-09-11T05:18:39.092Z,1017.05
2018-09-11T05:19:39.095Z,1017.04
2018-09-11T05:20:39.113Z,1017.08
2018-09-11T05:21:39.056Z,1017.05
2018-09-11T05:22:39.059Z,1017.11
2018-09-11T05:23:39.046Z,1017.08
2018-09-11T05:24:39.025Z,1017.06
2018-09-11T05:25:39.075Z,1017.07
2018-09-11T05:26:39.006Z,1017.09
2018-09-11T05:27:39.004Z,1017.06
2018-09-11T05:28:38.990Z,1017.09
2018-09-11T05:29:38.995Z,1017.06
2018-09-11T05:30:38.964Z,1017.07
2018-09-11T05:31:38.978Z,1017.08
2018-09-11T05:32:38.937Z,1017.14
2018-09-11T05:33:38.927Z,1017.16
2018-09-11T05:34:38.913Z,1017.18
2018-09-11T05:35:38.988Z,1017.14
2018-09-11T05:36:38.929Z,1017.18
2018-09-11T05:37:38.886Z,1017.18
2018-09-11T05:38:38.876Z,1017.15
2018-09-11T05:39:38.862Z,1017.08
2018-09-11T05:40:38.853Z,1017.09
2018-09-11T05:41:38.889Z,1017.08
2018-09-11T05:42:38.832Z,1017.04
2018-09-11T05:43:38.826Z,1017.09
2018-09-11T05:44:38.811Z,1017.09
2018-09-11T05:45:38.795Z,1017.09
2018-09-11T05:46:38.785Z,1017.06
2018-09-11T05:47:38.805Z,1017.04
2018-09-11T05:48:38.768Z,1017.07
2018-09-11T05:49:38.758Z,1017.13
2018-09-11T05:50:38.747Z,1017.13
2018-09-11T05:51:38.738Z,1017.17
2018-09-11T05:52:38.763Z,1017.14
2018-09-11T05:53:38.717Z,1017.16
2018-09-11T05:54:38.692Z,1017.14
2018-09-11T05:55:38.686Z,1017.11
2018-09-11T05:56:38.687Z,1017.12
2018-09-11T05:57:38.702Z,1017.16
2018-09-11T05:58:38.679Z,1017.10
2018-09-11T05:59:38.640Z,1017.14
2018-09-11T06:00:38.662Z,1017.13
2018-09-11T06:01:38.643Z,1017.08
2018-09-11T06:02:38.617Z,1017.09
2018-09-11T06:03:38.623Z,1017.04
2018-09-11T06:04:38.585Z,1017.06
2018-09-11T06:05:38.625Z,1017.04
2018-09-11T06:06:38.585Z,1017.08
2018-09-11T06:07:38.573Z,1017.05
2018-09-11T06:08:38.636Z,1017.02
2018-09-11T06:09:38.558Z,1017.03
2018-09-11T06:10:38.546Z,1017.06
2018-09-11T06:11:38.532Z,1017.07
2018-09-11T06:12:38.496Z,1017.03
2018-09-11T06:13:38.513Z,1017.06
2018-09-11T06:14:38.471Z,1017.06
2018-09-11T06:15:38.492Z,1017.06
2018-09-11T06:16:38.464Z,1017.09
2018-09-11T06:17:38.456Z,1017.06
2018-09-11T06:18:38.430Z,1017.00
2018-09-11T06:19:38.456Z,1017.03
2018-09-11T06:20:38.408Z,1017.05
2018-09-11T06:21:38.422Z,1017.13
2018-09-11T06:22:38.398Z,1017.05
2018-09-11T06:23:38.398Z,1017.07
2018-09-11T06:24:38.401Z,1017.07
2018-09-11T06:25:38.391Z,1017.13
2018-09-11T06:26:38.346Z,1017.12
2018-09-11T06:27:38.332Z,1017.11
2018-09-11T06:28:38.322Z,1017.12
2018-09-11T06:29:38.362Z,1017.18
2018-09-11T06:30:38.300Z,1017.18
2018-09-11T06:31:38.292Z,1017.12
2018-09-11T06:32:38.293Z,1017.17
2018-09-11T06:33:38.281Z,1017.16
2018-09-11T06:34:38.317Z,1017.17
2018-09-11T06:35:38.271Z,1017.18
2018-09-11T06:36:38.232Z,1017.18
2018-09-11T06:37:38.225Z,1017.15
2018-09-11T06:38:38.220Z,1017.09
2018-09-11T06:39:38.202Z,1017.12
2018-09-11T06:40:38.236Z,1017.15
2018-09-11T06:41:38.182Z,1017.13
2018-09-11T06:42:38.174Z,1017.09
2018-09-11T06:43:38.159Z,1017.07
2018-09-11T06:44:38.197Z,1017.06
2018-09-11T06:45:38.139Z,1017.07
2018-09-11T06:46:38.149Z,1017.07
2018-09-11T06:47:38.115Z,1017.10
2018-09-11T06:48:38.112Z,1017.08
2018-09-11T06:49:38.092Z,1017.07
2018-09-11T06:50:38.092Z,1017.08
2018-09-11T06:51:38.098Z,1017.08
2018-09-11T06:52:38.075Z,1017.10
2018-09-11T06:53:38.057Z,1017.06
2018-09-11T06:54:38.123Z,1017.07
2018-09-11T06:55:38.031Z,1017.06
2018-09-11T06:56:38.043Z,1017.05
2018-09-11T06:57:38.018Z,1017.04
2018-09-11T06:58:37.996Z,1017.04
2018-09-11T06:59:37.995Z,1016.99
2018-09-11T07:00:38.039Z,1017.03
2018-09-11T07:01:37.989Z,1016.99
2018-09-11T07:02:37.950Z,1017.02
2018-09-11T07:03:37.942Z,1017.01
2018-09-11T07:04:37.938Z,1017.03
2018-09-11T07:05:37.920Z,1017.03
2018-09-11T07:06:37.940Z,1017.05
2018-09-11T07:07:37.917Z,1017.06
2018-09-11T07:08:38.010Z,1017.04
2018-09-11T07:09:37.876Z,1017.06
2018-09-11T07:10:37.865Z,1017.03
2018-09-11T07:11:37.854Z,1017.05
2018-09-11T07:12:37.876Z,1017.04
2018-09-11T07:13:37.835Z,1017.08
2018-09-11T07:14:37.880Z,1017.09
2018-09-11T07:15:37.814Z,1017.08
2018-09-11T07:16:37.799Z,1017.06
2018-09-11T07:17:37.817Z,1017.09
2018-09-11T07:18:37.774Z,1017.02
2018-09-11T07:19:37.788Z,1017.08
2018-09-11T07:20:37.765Z,1017.06
2018-09-11T07:21:37.743Z,1017.07
2018-09-11T07:22:37.736Z,1017.07
2018-09-11T07:23:37.760Z,1017.08
2018-09-11T07:24:37.710Z,1017.10
2018-09-11T07:25:37.704Z,1017.14
2018-09-11T07:26:37.688Z,1017.11
2018-09-11T07:27:37.677Z,1017.10
2018-09-11T07:28:37.697Z,1017.08
2018-09-11T07:29:37.666Z,1017.08
2018-09-11T07:30:37.666Z,1017.06
2018-09-11T07:31:37.633Z,1017.11
2018-09-11T07:32:37.621Z,1017.11
2018-09-11T07:33:37.666Z,1017.08
2018-09-11T07:34:37.600Z,1017.08
2018-09-11T07:35:37.625Z,1017.03
2018-09-11T07:36:37.579Z,1017.04
2018-09-11T07:37:37.573Z,1017.02
2018-09-11T07:38:37.558Z,1017.06
2018-09-11T07:39:37.602Z,1017.01
2018-09-11T07:40:37.537Z,1017.11
2018-09-11T07:41:37.526Z,1017.02
2018-09-11T07:42:37.517Z,1017.02
2018-09-11T07:43:37.505Z,1017.01
2018-09-11T07:44:37.531Z,1017.01
2018-09-11T07:45:37.563Z,1016.99
2018-09-11T07:46:37.472Z,1017.00
2018-09-11T07:47:37.458Z,1017.01
2018-09-11T07:48:37.450Z,1017.05
2018-09-11T07:49:37.438Z,1017.01
2018-09-11T07:50:37.450Z,1017.04
2018-09-11T07:51:37.416Z,1017.04
2018-09-11T07:52:37.483Z,1017.07
2018-09-11T07:53:37.414Z,1017.07
2018-09-11T07:54:37.390Z,1017.00
2018-09-11T07:55:37.407Z,1016.99
2018-09-11T07:56:37.364Z,1017.02
2018-09-11T07:57:37.378Z,1016.96
2018-09-11T07:58:37.346Z,1016.97
2018-09-11T07:59:37.333Z,1016.98
2018-09-11T08:00:37.358Z,1017.01
2018-09-11T08:01:37.309Z,1017.00
2018-09-11T08:02:37.306Z,1017.03
2018-09-11T08:03:37.296Z,1016.97
2018-09-11T08:04:37.276Z,1016.99
2018-09-11T08:05:37.265Z,1016.99
2018-09-11T08:06:37.292Z,1016.96
2018-09-11T08:07:37.243Z,1017.00
2018-09-11T08:08:37.232Z,1016.97
2018-09-11T08:09:37.258Z,1017.00
2018-09-11T08:10:37.210Z,1017.01
2018-09-11T08:11:37.232Z,1017.02
2018-09-11T08:12:37.188Z,1017.03
2018-09-11T08:13:37.176Z,1017.01
2018-09-11T08:14:37.168Z,1017.09
2018-09-11T08:15:37.163Z,1017.07
2018-09-11T08:16:37.177Z,1017.09
2018-09-11T08:17:37.136Z,1017.12
2018-09-11T08:18:37.121Z,1017.07
2018-09-11T08:19:37.166Z,1017.08
2018-09-11T08:20:37.100Z,1017.08
2018-09-11T08:21:37.115Z,1017.06
2018-09-11T08:22:37.079Z,1017.03
2018-09-11T08:23:37.068Z,1017.05
2018-09-11T08:24:37.064Z,1017.04
2018-09-11T08:25:37.045Z,1017.04
2018-09-11T08:26:37.103Z,1017.05
2018-09-11T08:27:37.023Z,1017.07
2018-09-11T08:28:37.014Z,1017.04
2018-09-11T08:29:36.999Z,1017.04
2018-09-11T08:30:36.992Z,1017.04
2018-09-11T08:31:36.978Z,1017.02
2018-09-11T08:32:36.992Z,1017.02
2018-09-11T08:33:36.955Z,1017.05
2018-09-11T08:34:36.945Z,1017.02
2018-09-11T08:35:36.934Z,1017.08
2018-09-11T08:36:36.960Z,1017.05
2018-09-11T08:37:36.911Z,1017.10
2018-09-11T08:38:36.901Z,1017.06
2018-09-11T08:39:36.906Z,1017.04
2018-09-11T08:40:36.878Z,1016.97
2018-09-11T08:41:36.867Z,1017.02
2018-09-11T08:42:36.883Z,1017.01
2018-09-11T08:43:36.848Z,1016.99
2018-09-11T08:44:36.834Z,1017.03
2018-09-11T08:45:36.823Z,1017.03
2018-09-11T08:46:36.834Z,1017.03
2018-09-11T08:47:36.835Z,1017.05
2018-09-11T08:48:36.791Z,1016.97
2018-09-11T08:49:36.783Z,1017.01
2018-09-11T08:50:36.769Z,1016.96
2018-09-11T08:51:36.757Z,1016.98
2018-09-11T08:52:36.919Z,1016.99
2018-09-11T08:53:36.740Z,1016.99
2018-09-11T08:54:36.725Z,1016.99
2018-09-11T08:55:36.717Z,1016.97
2018-09-11T08:56:36.705Z,1016.98
2018-09-11T08:57:36.697Z,1016.99
2018-09-11T08:58:36.753Z,1016.98
2018-09-11T08:59:36.672Z,1016.98
2018-09-11T09:00:36.662Z,1017.01
2018-09-11T09:01:36.651Z,1017.03
2018-09-11T09:02:36.640Z,1017.06
2018-09-11T09:03:36.672Z,1017.07
2018-09-11T09:04:36.618Z,1017.11
2018-09-11T09:05:36.623Z,1017.07
2018-09-11T09:06:36.609Z,1017.04
2018-09-11T09:07:36.585Z,1017.02
2018-09-11T09:08:36.577Z,1016.95
2018-09-11T09:09:36.592Z,1016.99
2018-09-11T09:10:36.555Z,1017.03
2018-09-11T09:11:36.543Z,1017.00
2018-09-11T09:12:36.530Z,1017.03
2018-09-11T09:13:36.529Z,1016.98
2018-09-11T09:14:36.536Z,1016.89
2018-09-11T09:15:36.505Z,1016.85
2018-09-11T09:16:36.488Z,1016.89
2018-09-11T09:17:36.476Z,1016.90
2018-09-11T09:18:36.481Z,1016.88
2018-09-11T09:19:36.521Z,1016.86
2018-09-11T09:20:36.444Z,1016.88
2018-09-11T09:21:36.439Z,1016.89
2018-09-11T09:22:36.426Z,1016.91
2018-09-11T09:23:36.411Z,1016.85
2018-09-11T09:24:36.400Z,1016.85
2018-09-11T09:25:36.415Z,1016.81
2018-09-11T09:26:36.382Z,1016.78
2018-09-11T09:27:36.512Z,1016.81
2018-09-11T09:28:36.379Z,1016.86
2018-09-11T09:29:36.357Z,1016.80
2018-09-11T09:30:36.367Z,1016.75
2018-09-11T09:31:36.331Z,1016.78
2018-09-11T09:32:36.314Z,1016.73
2018-09-11T09:33:36.322Z,1016.75
2018-09-11T09:34:36.295Z,1016.65
2018-09-11T09:35:36.288Z,1016.66
2018-09-11T09:36:36.372Z,1016.60
2018-09-11T09:37:36.271Z,1016.58
2018-09-11T09:38:36.250Z,1016.58
2018-09-11T09:39:36.253Z,1016.69
2018-09-11T09:40:36.229Z,1016.67
2018-09-11T09:41:36.266Z,1016.55
2018-09-11T09:42:36.211Z,1016.62
2018-09-11T09:43:36.197Z,1016.60
2018-09-11T09:44:36.192Z,1016.60
2018-09-11T09:45:36.170Z,1016.59
2018-09-11T09:46:36.191Z,1016.60
2018-09-11T09:47:36.155Z,1016.63
2018-09-11T09:48:36.139Z,1016.52
2018-09-11T09:49:36.136Z,1016.52
2018-09-11T09:50:36.123Z,1016.58
2018-09-11T09:51:36.115Z,1016.52
2018-09-11T09:52:36.120Z,1016.48
2018-09-11T09:53:36.086Z,1016.47
2018-09-11T09:54:36.082Z,1016.55
2018-09-11T09:55:36.063Z,1016.49
2018-09-11T09:56:36.057Z,1016.51
2018-09-11T09:57:36.066Z,1016.49
2018-09-11T09:58:36.041Z,1016.51
2018-09-11T09:59:36.021Z,1016.49
2018-09-11T10:00:36.018Z,1016.49
2018-09-11T10:01:36.005Z,1016.47
2018-09-11T10:02:36.024Z,1016.45
2018-09-11T10:03:35.978Z,1016.35
2018-09-11T10:04:35.975Z,1016.33
2018-09-11T10:05:35.956Z,1016.31
2018-09-11T10:06:35.947Z,1016.26
2018-09-11T10:07:35.969Z,1016.29
2018-09-11T10:08:35.923Z,1016.32
2018-09-11T10:09:35.929Z,1016.32
2018-09-11T10:10:35.908Z,1016.29
2018-09-11T10:11:35.901Z,1016.38
2018-09-11T10:12:35.878Z,1016.33
2018-09-11T10:13:35.908Z,1016.27
2018-09-11T10:14:35.861Z,1016.27
2018-09-11T10:15:35.845Z,1016.26
2018-09-11T10:16:35.835Z,1016.24
2018-09-11T10:17:35.899Z,1016.25
2018-09-11T10:18:35.814Z,1016.22
2018-09-11T10:19:35.827Z,1016.17
2018-09-11T10:20:35.796Z,1016.13
2018-09-11T10:21:35.785Z,1016.11
2018-09-11T10:22:35.782Z,1016.11
2018-09-11T10:23:35.760Z,1016.08
2018-09-11T10:24:35.812Z,1016.08
2018-09-11T10:25:35.739Z,1016.07
2018-09-11T10:26:35.727Z,1016.16
2018-09-11T10:27:35.769Z,1016.18
2018-09-11T10:28:35.705Z,1016.13
2018-09-11T10:29:35.718Z,1016.12
2018-09-11T10:30:35.692Z,1016.11
2018-09-11T10:31:35.679Z,1016.19
2018-09-11T10:32:35.660Z,1016.19
2018-09-11T10:33:35.665Z,1016.23
2018-09-11T10:34:35.690Z,1016.22
2018-09-11T10:35:35.628Z,1016.17
2018-09-11T10:36:35.620Z,1016.22
2018-09-11T10:37:35.616Z,1016.19
2018-09-11T10:38:35.594Z,1016.21
2018-09-11T10:39:35.590Z,1016.20
2018-09-11T10:40:35.616Z,1016.23
2018-09-11T10:41:35.564Z,1016.22
2018-09-11T10:42:35.555Z,1016.25
2018-09-11T10:43:35.556Z,1016.19
2018-09-11T10:44:35.533Z,1016.22
2018-09-11T10:45:35.536Z,1016.22
2018-09-11T10:46:35.551Z,1016.10
2018-09-11T10:47:35.521Z,1016.07
2018-09-11T10:48:35.489Z,1016.03
2018-09-11T10:49:35.498Z,1015.96
2018-09-11T10:50:35.470Z,1015.96
2018-09-11T10:51:35.500Z,1016.03
2018-09-11T10:52:35.444Z,1016.04
2018-09-11T10:53:35.437Z,1016.07
2018-09-11T10:54:35.441Z,1016.05
2018-09-11T10:55:35.414Z,1015.98
2018-09-11T10:56:35.427Z,1015.97
2018-09-11T10:57:35.402Z,1015.96
2018-09-11T10:58:35.388Z,1015.95
2018-09-11T10:59:35.372Z,1015.91
2018-09-11T11:00:35.366Z,1015.96
2018-09-11T11:01:35.381Z,1015.92
2018-09-11T11:02:35.343Z,1015.91
2018-09-11T11:03:35.330Z,1015.85
2018-09-11T11:04:35.316Z,1015.89
2018-09-11T11:05:35.303Z,1015.85
2018-09-11T11:06:35.301Z,1015.87
2018-09-11T11:07:35.309Z,1015.87
2018-09-11T11:08:35.273Z,1015.83
2018-09-11T11:09:35.282Z,1015.80
2018-09-11T11:10:35.262Z,1015.74
2018-09-11T11:11:35.254Z,1015.79
2018-09-11T11:12:35.230Z,1015.82
2018-09-11T11:13:36.127Z,1015.82
2018-09-11T11:14:35.208Z,1015.77
2018-09-11T11:15:35.198Z,1015.80
2018-09-11T11:16:35.192Z,1015.75
2018-09-11T11:17:35.182Z,1015.71
2018-09-11T11:18:35.201Z,1015.72
2018-09-11T11:19:35.179Z,1015.68
2018-09-11T11:20:35.145Z,1015.68
2018-09-11T11:21:35.135Z,1015.70
2018-09-11T11:22:35.146Z,1015.69
2018-09-11T11:23:35.150Z,1015.71
2018-09-11T11:24:35.104Z,1015.72
2018-09-11T11:25:35.089Z,1015.72
2018-09-11T11:26:35.080Z,1015.78
2018-09-11T11:27:35.083Z,1015.73
2018-09-11T11:28:35.058Z,1015.77
2018-09-11T11:29:35.071Z,1015.75
2018-09-11T11:30:35.066Z,1015.67
2018-09-11T11:31:35.026Z,1015.69
2018-09-11T11:32:35.013Z,1015.62
2018-09-11T11:33:35.029Z,1015.67
2018-09-11T11:34:35.023Z,1015.60
2018-09-11T11:35:34.982Z,1015.57
2018-09-11T11:36:35.031Z,1015.56
2018-09-11T11:37:34.960Z,1015.60
2018-09-11T11:38:34.950Z,1015.61
2018-09-11T11:39:34.951Z,1015.62
2018-09-11T11:40:34.957Z,1015.65
2018-09-11T11:41:34.926Z,1015.60
2018-09-11T11:42:34.907Z,1015.61
2018-09-11T11:43:34.897Z,1015.53
2018-09-11T11:44:34.885Z,1015.60
2018-09-11T11:45:34.901Z,1015.56
2018-09-11T11:46:34.880Z,1015.63
2018-09-11T11:47:34.854Z,1015.56
2018-09-11T11:48:34.841Z,1015.56
2018-09-11T11:49:34.835Z,1015.61
2018-09-11T11:50:34.864Z,1015.61
2018-09-11T11:51:34.819Z,1015.55
2018-09-11T11:52:34.799Z,1015.68
2018-09-11T11:53:34.793Z,1015.79
2018-09-11T11:54:34.778Z,1015.78
2018-09-11T11:55:34.778Z,1015.72
2018-09-11T11:56:34.806Z,1015.74
2018-09-11T11:57:34.760Z,1015.72
2018-09-11T11:58:34.744Z,1015.66
2018-09-11T11:59:34.725Z,1015.64
2018-09-11T12:00:34.736Z,1015.70
2018-09-11T12:01:34.747Z,1015.73
2018-09-11T12:02:34.693Z,1015.70
2018-09-11T12:03:34.682Z,1015.65
2018-09-11T12:04:34.672Z,1015.62
2018-09-11T12:05:34.663Z,1015.67